Time;durP1;ratioP1;P1;durP2;ratioP2;P2;SDS_P1;SDS_P2;PMS_P1;PMS_P2;Temp;Humidity;BMP_temperature;BMP_pressure;BME280_temperature;BME280_humidity;BME280_pressure;Samples;Min_cycle;Max_cycle;Signal;HPM_P1;HPM_P2
2021/12/30 00:02:14;;;;;;;31.45;5.45;;;10.10;99.90;;;;;;5032079;28;20049;-63
2021/12/30 00:04:39;;;;;;;31.85;5.53;;;10.10;99.90;;;;;;5031779;28;20504;-62
2021/12/30 00:07:05;;;;;;;31.48;5.35;;;10.10;99.90;;;;;;5031843;28;20057;-63
2021/12/30 00:09:31;;;;;;;37.95;5.82;;;10.00;99.90;;;;;;5031880;28;20509;-63
2021/12/30 00:11:56;;;;;;;33.67;5.20;;;10.00;99.90;;;;;;5031708;28;20125;-62
2021/12/30 00:14:22;;;;;;;35.00;5.43;;;10.00;99.90;;;;;;5031471;28;20099;-63
2021/12/30 00:16:48;;;;;;;23.67;5.20;;;10.00;99.90;;;;;;5031806;28;20398;-63
2021/12/30 00:19:13;;;;;;;36.03;5.20;;;10.00;99.90;;;;;;5030968;28;20117;-62
2021/12/30 00:21:39;;;;;;;34.15;5.40;;;9.90;99.90;;;;;;5031609;28;20516;-62
2021/12/30 00:24:05;;;;;;;35.25;5.75;;;9.70;99.90;;;;;;5031518;28;20052;-63
2021/12/30 00:26:31;;;;;;;33.67;5.05;;;9.70;99.90;;;;;;5031587;28;20117;-63
2021/12/30 00:28:57;;;;;;;33.13;5.50;;;9.50;99.90;;;;;;5031506;28;20041;-62
2021/12/30 00:31:22;;;;;;;29.75;4.97;;;9.50;99.90;;;;;;5031537;28;20121;-63
2021/12/30 00:33:48;;;;;;;37.60;5.97;;;9.50;99.90;;;;;;5029881;28;20076;-63
2021/12/30 00:36:14;;;;;;;37.08;5.90;;;9.40;99.90;;;;;;5031551;28;20064;-62
2021/12/30 00:38:43;;;;;;;33.78;5.30;;;9.40;99.90;;;;;;5031196;28;20063;-63
2021/12/30 00:41:10;;;;;;;32.85;6.07;;;9.30;99.90;;;;;;5031173;28;20053;-63
2021/12/30 00:43:36;;;;;;;32.67;5.60;;;9.20;99.90;;;;;;5030812;28;20156;-62
2021/12/30 00:46:04;;;;;;;32.10;5.85;;;9.20;99.90;;;;;;5030008;28;20048;-63
2021/12/30 00:48:29;;;;;;;31.00;5.78;;;9.30;99.90;;;;;;5031233;28;20037;-62
2021/12/30 00:50:55;;;;;;;31.40;5.22;;;9.30;99.90;;;;;;5030971;28;20043;-62
2021/12/30 00:53:21;;;;;;;25.75;5.35;;;9.30;99.90;;;;;;5030608;28;20044;-63
2021/12/30 00:55:46;;;;;;;34.90;5.78;;;9.30;99.90;;;;;;5031160;28;20038;-63
2021/12/30 00:58:13;;;;;;;42.35;5.78;;;9.30;99.90;;;;;;5030698;28;20033;-62
2021/12/30 01:00:41;;;;;;;31.25;5.10;;;9.30;99.90;;;;;;5030657;28;20493;-62
2021/12/30 01:03:07;;;;;;;38.38;5.85;;;9.30;99.90;;;;;;5017845;28;20100;-62
2021/12/30 01:05:33;;;;;;;30.42;5.65;;;9.20;99.90;;;;;;5011169;28;20122;-63
2021/12/30 01:07:59;;;;;;;38.78;6.70;;;9.20;99.90;;;;;;5011020;28;20113;-63
2021/12/30 01:10:26;;;;;;;33.50;6.60;;;9.30;99.90;;;;;;5020125;28;20045;-63
2021/12/30 01:12:53;;;;;;;42.78;6.28;;;9.30;99.90;;;;;;5030249;28;20112;-63
2021/12/30 01:15:30;;;;;;;31.92;6.35;;;9.30;99.90;;;;;;5029268;28;20051;-63
2021/12/30 01:18:19;;;;;;;36.47;5.75;;;9.30;99.90;;;;;;5029371;28;20041;-63
2021/12/30 01:20:41;;;;;;;41.08;5.97;;;9.40;99.90;;;;;;5030224;28;20124;-63
2021/12/30 01:23:06;;;;;;;35.15;6.05;;;9.40;99.90;;;;;;5029965;28;20156;-63
2021/12/30 01:25:32;;;;;;;34.55;5.68;;;9.30;99.90;;;;;;5030676;28;20044;-63
2021/12/30 01:27:57;;;;;;;42.40;6.05;;;9.20;99.90;;;;;;5030506;28;20099;-62
2021/12/30 01:30:23;;;;;;;36.78;6.70;;;9.30;99.90;;;;;;5030207;28;20055;-63
2021/12/30 01:32:48;;;;;;;40.83;6.50;;;9.30;99.90;;;;;;5030101;28;20045;-63
2021/12/30 01:35:22;;;;;;;33.33;5.43;;;9.20;99.90;;;;;;5030237;28;20045;-63
2021/12/30 01:37:47;;;;;;;34.55;5.60;;;9.20;99.90;;;;;;5030337;28;20128;-62
2021/12/30 01:40:15;;;;;;;37.85;6.15;;;9.20;99.90;;;;;;5030176;28;20120;-63
2021/12/30 01:42:41;;;;;;;38.42;6.60;;;9.10;99.90;;;;;;5029994;28;20625;-63
2021/12/30 01:45:08;;;;;;;41.83;6.65;;;9.00;99.90;;;;;;5030114;28;20113;-63
2021/12/30 01:47:34;;;;;;;34.67;6.43;;;8.90;99.90;;;;;;5030298;28;20113;-63
2021/12/30 01:50:00;;;;;;;35.50;6.63;;;8.80;99.90;;;;;;5029975;28;20117;-63
2021/12/30 01:52:25;;;;;;;35.38;6.03;;;8.80;99.90;;;;;;5029669;28;20091;-63
2021/12/30 01:54:51;;;;;;;42.50;6.95;;;8.80;99.90;;;;;;5029837;28;20573;-62
2021/12/30 01:57:16;;;;;;;32.22;5.88;;;8.70;99.90;;;;;;5028958;28;20072;-63
2021/12/30 01:59:42;;;;;;;37.47;7.32;;;8.70;99.90;;;;;;5029806;28;20548;-63
2021/12/30 02:02:08;;;;;;;37.28;6.60;;;8.70;99.90;;;;;;5029769;28;20041;-63
2021/12/30 02:04:33;;;;;;;31.85;6.85;;;8.70;99.90;;;;;;5029427;28;20038;-63
2021/12/30 02:06:59;;;;;;;42.67;6.72;;;8.80;99.90;;;;;;5029755;28;20112;-63
2021/12/30 02:09:25;;;;;;;42.05;6.60;;;8.80;99.90;;;;;;5030078;28;20038;-63
2021/12/30 02:11:54;;;;;;;46.38;7.50;;;8.90;99.90;;;;;;5029865;28;20037;-63
2021/12/30 02:14:20;;;;;;;45.78;8.60;;;9.10;99.90;;;;;;5029506;28;20489;-63
2021/12/30 02:16:45;;;;;;;43.53;7.90;;;9.20;99.90;;;;;;5028457;28;20091;-63
2021/12/30 02:19:11;;;;;;;44.65;8.40;;;9.30;99.90;;;;;;5029800;28;20171;-63
2021/12/30 02:21:37;;;;;;;40.65;8.77;;;9.50;99.90;;;;;;5029358;28;20045;-63
2021/12/30 02:24:04;;;;;;;46.55;9.82;;;9.50;99.90;;;;;;5029280;28;20044;-63
2021/12/30 02:26:29;;;;;;;49.15;9.85;;;9.60;99.90;;;;;;5028354;28;20702;-64
2021/12/30 02:28:55;;;;;;;52.97;11.07;;;9.70;99.90;;;;;;5029784;28;20037;-63
2021/12/30 02:31:24;;;;;;;47.38;11.23;;;9.80;99.90;;;;;;5029639;28;20033;-63
2021/12/30 02:33:50;;;;;;;59.40;13.93;;;9.80;99.90;;;;;;5029220;28;20045;-63
2021/12/30 02:36:21;;;;;;;56.80;12.35;;;10.00;99.90;;;;;;5029415;28;20052;-63
2021/12/30 02:38:46;;;;;;;48.33;12.87;;;10.10;99.90;;;;;;5029951;28;20045;-63
2021/12/30 02:41:16;;;;;;;37.83;13.93;;;10.20;99.90;;;;;;5030639;28;20033;-63
2021/12/30 02:43:44;;;;;;;56.83;14.02;;;10.20;99.90;;;;;;5031865;28;20143;-63
2021/12/30 02:46:10;;;;;;;49.97;14.90;;;10.30;99.90;;;;;;5033347;28;20457;-62
2021/12/30 02:48:41;;;;;;;51.50;14.57;;;10.30;99.90;;;;;;5033259;28;20064;-63
2021/12/30 02:51:09;;;;;;;50.05;14.77;;;10.30;99.90;;;;;;5033609;28;20095;-63
2021/12/30 02:53:35;;;;;;;52.83;15.65;;;10.40;99.90;;;;;;5033063;28;20076;-63
2021/12/30 02:56:02;;;;;;;51.47;14.98;;;10.40;99.90;;;;;;5033296;28;20037;-63
2021/12/30 02:58:28;;;;;;;51.78;14.38;;;10.50;99.90;;;;;;5033382;28;20073;-63
2021/12/30 03:01:08;;;;;;;53.35;14.65;;;10.50;99.90;;;;;;5033139;28;20073;-62
2021/12/30 03:03:34;;;;;;;50.38;13.68;;;10.60;99.90;;;;;;5033304;28;20199;-62
2021/12/30 03:06:03;;;;;;;43.72;13.25;;;10.50;99.90;;;;;;5032028;28;20045;-62
2021/12/30 03:08:29;;;;;;;54.38;15.80;;;10.50;99.90;;;;;;5033074;28;20038;-62
2021/12/30 03:10:55;;;;;;;56.67;14.55;;;10.60;99.90;;;;;;5033259;28;20485;-62
2021/12/30 03:13:29;;;;;;;45.08;14.38;;;10.60;99.90;;;;;;5032652;28;20494;-62
2021/12/30 03:15:56;;;;;;;54.42;14.23;;;10.60;99.90;;;;;;5032720;28;20692;-62
2021/12/30 03:18:21;;;;;;;49.42;15.05;;;10.60;99.90;;;;;;5032954;28;20099;-63
2021/12/30 03:20:48;;;;;;;58.67;15.18;;;10.70;99.90;;;;;;5032932;28;20037;-62
2021/12/30 03:23:13;;;;;;;49.20;15.20;;;10.70;99.90;;;;;;5032534;28;20468;-62
2021/12/30 03:25:39;;;;;;;48.95;15.23;;;10.70;99.90;;;;;;5025418;28;20494;-62
2021/12/30 03:28:05;;;;;;;50.08;15.50;;;10.70;99.90;;;;;;5012780;28;20494;-63
2021/12/30 03:30:31;;;;;;;47.90;14.57;;;10.70;99.90;;;;;;5013222;28;20042;-63
2021/12/30 03:32:56;;;;;;;52.50;16.27;;;10.70;99.90;;;;;;5012876;28;20042;-62
2021/12/30 03:35:22;;;;;;;53.30;15.63;;;10.70;99.90;;;;;;5012883;28;20670;-62
2021/12/30 03:37:47;;;;;;;58.40;16.15;;;10.70;99.90;;;;;;5012738;28;20038;-62
2021/12/30 03:40:15;;;;;;;47.05;13.68;;;10.70;99.90;;;;;;5013237;28;20037;-63
2021/12/30 03:42:41;;;;;;;49.38;15.02;;;10.70;99.90;;;;;;5032079;28;20049;-63
2021/12/30 03:45:09;;;;;;;49.38;16.55;;;10.70;99.90;;;;;;5032034;28;20033;-62
2021/12/30 03:47:38;;;;;;;52.30;15.98;;;10.70;99.90;;;;;;5012701;28;20113;-63
2021/12/30 03:50:09;;;;;;;57.33;14.52;;;10.70;99.90;;;;;;5012592;28;20038;-62
2021/12/30 03:52:35;;;;;;;51.92;14.32;;;10.80;99.90;;;;;;5011078;28;20044;-63
2021/12/30 03:55:00;;;;;;;61.38;14.48;;;10.80;99.90;;;;;;5012518;28;20030;-63
2021/12/30 03:57:26;;;;;;;42.45;14.65;;;10.80;99.90;;;;;;5031330;28;20041;-62
2021/12/30 03:59:52;;;;;;;43.47;12.85;;;10.80;99.90;;;;;;5032146;28;20409;-63
2021/12/30 04:02:17;;;;;;;49.88;13.35;;;10.80;99.90;;;;;;5032091;28;20120;-63
2021/12/30 04:04:43;;;;;;;48.72;12.52;;;10.90;99.90;;;;;;5031747;28;20172;-63
2021/12/30 04:07:09;;;;;;;49.80;13.45;;;10.90;99.90;;;;;;5030618;28;20175;-62
2021/12/30 04:09:35;;;;;;;50.05;13.20;;;10.90;99.90;;;;;;5031823;28;20154;-62
2021/12/30 04:12:01;;;;;;;40.80;12.38;;;10.90;99.90;;;;;;5030596;28;20049;-62
2021/12/30 04:14:27;;;;;;;51.13;13.15;;;10.90;99.90;;;;;;5031867;28;20405;-62
2021/12/30 04:16:53;;;;;;;54.45;13.30;;;10.90;99.90;;;;;;5031687;28;20045;-63
2021/12/30 04:19:19;;;;;;;49.17;12.27;;;10.90;99.90;;;;;;5031742;28;20041;-62
2021/12/30 04:21:45;;;;;;;55.13;13.88;;;10.90;99.90;;;;;;5030260;28;20187;-62
2021/12/30 04:24:10;;;;;;;55.05;13.82;;;10.90;99.90;;;;;;5031313;28;20045;-63
2021/12/30 04:26:36;;;;;;;60.72;15.18;;;10.90;99.90;;;;;;5031217;28;20044;-63
2021/12/30 04:29:04;;;;;;;53.22;14.60;;;11.00;99.90;;;;;;5027976;28;20053;-62
2021/12/30 04:31:31;;;;;;;59.10;14.88;;;11.00;99.90;;;;;;5011681;28;20528;-62
2021/12/30 04:33:58;;;;;;;54.15;14.02;;;11.00;99.90;;;;;;5011374;28;20049;-62
2021/12/30 04:36:23;;;;;;;50.60;14.63;;;11.00;99.90;;;;;;5011596;28;20048;-62
2021/12/30 04:38:49;;;;;;;67.30;15.63;;;11.10;99.90;;;;;;5011516;28;20042;-62
2021/12/30 04:41:14;;;;;;;62.80;15.60;;;11.10;99.90;;;;;;5011189;28;20073;-63
2021/12/30 04:43:40;;;;;;;65.30;16.92;;;11.10;99.90;;;;;;5011312;28;20129;-62
2021/12/30 04:46:06;;;;;;;71.13;16.40;;;11.00;99.90;;;;;;5011505;28;20038;-62
2021/12/30 04:48:31;;;;;;;74.65;17.52;;;11.10;99.90;;;;;;5011298;28;20121;-62
2021/12/30 04:50:57;;;;;;;73.65;15.75;;;11.00;99.90;;;;;;5011367;28;20568;-62
2021/12/30 04:53:23;;;;;;;66.93;15.57;;;11.00;99.90;;;;;;5011154;28;20121;-62
2021/12/30 04:55:49;;;;;;;77.60;17.30;;;11.00;99.90;;;;;;5011191;28;20057;-63
2021/12/30 04:58:15;;;;;;;71.13;16.52;;;11.00;99.90;;;;;;5011400;28;20168;-63
2021/12/30 05:00:41;;;;;;;68.78;17.77;;;11.00;99.90;;;;;;5011184;28;20042;-63
2021/12/30 05:03:09;;;;;;;63.38;17.17;;;11.00;99.90;;;;;;5010904;28;20038;-63
2021/12/30 05:05:49;;;;;;;53.90;15.43;;;11.00;99.90;;;;;;5011004;28;20038;-63
2021/12/30 05:08:21;;;;;;;57.58;16.15;;;11.10;99.90;;;;;;5010803;28;20479;-63
2021/12/30 05:10:47;;;;;;;59.38;15.80;;;11.10;99.90;;;;;;5011157;28;20046;-63
2021/12/30 05:13:14;;;;;;;54.20;14.73;;;11.10;99.90;;;;;;5009374;28;20384;-63
2021/12/30 05:15:40;;;;;;;53.00;13.82;;;11.20;99.90;;;;;;5011059;28;20046;-63
2021/12/30 05:18:08;;;;;;;50.80;14.05;;;11.10;99.90;;;;;;5010818;28;20077;-63
2021/12/30 05:20:34;;;;;;;65.75;14.88;;;11.20;99.90;;;;;;5010487;28;20592;-63
2021/12/30 05:22:59;;;;;;;61.40;14.52;;;11.20;99.90;;;;;;5009128;28;20046;-63
2021/12/30 05:25:26;;;;;;;59.20;14.93;;;11.20;99.90;;;;;;5010751;28;20036;-63
2021/12/30 05:27:52;;;;;;;60.83;14.90;;;11.20;99.90;;;;;;5010932;28;20030;-63
2021/12/30 05:30:21;;;;;;;65.72;13.90;;;11.20;99.90;;;;;;5010618;28;20053;-63
2021/12/30 05:32:47;;;;;;;61.78;14.15;;;11.20;99.90;;;;;;5009047;28;20410;-63
2021/12/30 05:35:13;;;;;;;54.85;15.73;;;11.20;99.90;;;;;;5010466;28;20042;-63
2021/12/30 05:37:40;;;;;;;60.70;13.98;;;11.30;99.90;;;;;;5009575;28;20041;-63
2021/12/30 05:40:08;;;;;;;63.88;15.50;;;11.30;99.90;;;;;;5010577;28;20084;-63
2021/12/30 05:42:33;;;;;;;66.18;15.13;;;11.30;99.90;;;;;;5010159;28;20049;-63
2021/12/30 05:44:59;;;;;;;61.65;13.50;;;11.40;99.90;;;;;;5010404;28;20038;-63
2021/12/30 05:47:25;;;;;;;52.80;13.80;;;11.40;99.90;;;;;;5010607;28;20037;-63
2021/12/30 05:49:50;;;;;;;75.22;16.17;;;11.40;99.90;;;;;;5010214;28;20037;-63
2021/12/30 05:52:16;;;;;;;61.42;14.75;;;11.40;99.90;;;;;;5010199;28;20038;-63
2021/12/30 05:54:43;;;;;;;65.45;14.80;;;11.50;99.90;;;;;;5010218;28;20120;-63
2021/12/30 05:57:09;;;;;;;60.92;15.18;;;11.50;99.90;;;;;;5010606;28;20042;-63
2021/12/30 05:59:36;;;;;;;71.25;15.98;;;11.60;99.90;;;;;;5010252;28;20033;-63
2021/12/30 06:02:01;;;;;;;75.05;16.90;;;11.60;99.90;;;;;;5010109;28;20061;-63
2021/12/30 06:04:27;;;;;;;80.03;17.45;;;11.60;99.90;;;;;;5008287;28;20050;-63
2021/12/30 06:06:53;;;;;;;78.95;16.55;;;11.70;99.90;;;;;;5010306;28;20037;-63
2021/12/30 06:09:22;;;;;;;83.90;17.48;;;11.70;99.90;;;;;;5010387;28;20042;-63
2021/12/30 06:11:47;;;;;;;77.20;16.40;;;11.70;99.90;;;;;;5009957;28;20045;-62
2021/12/30 06:14:13;;;;;;;77.93;16.70;;;11.70;99.90;;;;;;5009374;28;20079;-63
2021/12/30 06:16:38;;;;;;;76.15;16.65;;;11.70;99.90;;;;;;5006949;28;20129;-62
2021/12/30 06:19:04;;;;;;;80.78;16.42;;;11.80;99.90;;;;;;5009767;28;20465;-62
2021/12/30 06:21:30;;;;;;;81.13;16.83;;;11.80;99.90;;;;;;5009968;28;20034;-62
2021/12/30 06:23:55;;;;;;;72.10;15.75;;;11.80;99.90;;;;;;5009670;28;20056;-62
2021/12/30 06:26:21;;;;;;;68.07;15.75;;;11.80;99.90;;;;;;5010053;28;20062;-62
2021/12/30 06:28:46;;;;;;;75.78;15.25;;;11.90;99.90;;;;;;5009979;28;20037;-62
2021/12/30 06:31:12;;;;;;;65.25;15.85;;;11.90;99.90;;;;;;5009840;28;20038;-62
2021/12/30 06:33:39;;;;;;;64.93;14.95;;;11.90;99.90;;;;;;5009277;28;20037;-62
2021/12/30 06:36:05;;;;;;;58.17;14.93;;;11.90;99.90;;;;;;5009979;28;20038;-62
2021/12/30 06:38:33;;;;;;;60.88;14.75;;;12.00;99.90;;;;;;5009882;28;20132;-62
2021/12/30 06:40:58;;;;;;;54.15;14.63;;;12.00;99.90;;;;;;5009959;28;20057;-62
2021/12/30 06:43:24;;;;;;;53.55;14.05;;;12.10;99.90;;;;;;5009535;28;20490;-62
2021/12/30 06:45:49;;;;;;;55.17;13.98;;;12.10;99.90;;;;;;5009738;28;20545;-62
2021/12/30 06:48:15;;;;;;;49.60;13.75;;;12.10;99.90;;;;;;5009540;28;20029;-62
2021/12/30 06:50:42;;;;;;;50.65;14.38;;;12.10;99.90;;;;;;5009779;28;20046;-62
2021/12/30 06:53:07;;;;;;;44.58;13.52;;;12.20;99.90;;;;;;5009566;28;20038;-62
2021/12/30 06:55:33;;;;;;;48.72;13.73;;;12.20;99.90;;;;;;5009717;28;20099;-62
2021/12/30 06:57:59;;;;;;;48.65;13.77;;;12.20;99.90;;;;;;5009706;28;20041;-63
2021/12/30 07:00:24;;;;;;;44.15;13.48;;;12.20;99.90;;;;;;5009530;28;20165;-63
2021/12/30 07:02:50;;;;;;;41.65;13.77;;;12.20;99.90;;;;;;5009143;28;20449;-63
2021/12/30 07:05:15;;;;;;;52.28;13.52;;;12.20;99.90;;;;;;5009409;28;20034;-63
2021/12/30 07:07:43;;;;;;;45.88;13.20;;;12.20;99.90;;;;;;5009645;28;20037;-63
2021/12/30 07:10:10;;;;;;;44.95;12.73;;;12.30;99.90;;;;;;5009591;28;20116;-63
2021/12/30 07:12:37;;;;;;;46.10;12.52;;;12.20;99.90;;;;;;5008449;28;20042;-63
2021/12/30 07:15:04;;;;;;;40.03;12.70;;;12.20;99.90;;;;;;5009432;28;20038;-63
2021/12/30 07:17:31;;;;;;;37.97;11.25;;;12.20;99.90;;;;;;5009278;28;20041;-63
2021/12/30 07:19:57;;;;;;;39.47;12.27;;;12.20;99.90;;;;;;5009561;28;20096;-63
2021/12/30 07:22:23;;;;;;;36.50;11.65;;;12.30;99.90;;;;;;5009301;28;20442;-63
2021/12/30 07:24:49;;;;;;;30.58;10.02;;;12.20;99.90;;;;;;5009151;28;20241;-63
2021/12/30 07:27:14;;;;;;;34.15;11.35;;;12.20;99.90;;;;;;5009902;28;20073;-63
2021/12/30 07:29:40;;;;;;;27.98;9.45;;;12.30;99.90;;;;;;5011820;28;20125;-63
2021/12/30 07:32:06;;;;;;;24.77;8.50;;;12.30;99.90;;;;;;5012949;28;20042;-63
2021/12/30 07:34:31;;;;;;;25.60;8.77;;;12.30;99.90;;;;;;5012447;28;20050;-63
2021/12/30 07:36:57;;;;;;;22.27;7.95;;;12.20;99.90;;;;;;5011457;28;20045;-63
2021/12/30 07:39:22;;;;;;;24.13;8.32;;;12.30;99.90;;;;;;5012563;28;20046;-62
2021/12/30 07:41:48;;;;;;;20.63;7.65;;;12.30;99.90;;;;;;5012652;28;20113;-63
2021/12/30 07:44:15;;;;;;;16.90;6.75;;;12.30;99.90;;;;;;5012332;28;20100;-63
2021/12/30 07:46:41;;;;;;;16.33;6.65;;;12.30;99.90;;;;;;5012458;28;20049;-63
2021/12/30 07:49:06;;;;;;;15.30;6.72;;;12.30;99.90;;;;;;5011188;28;20038;-63
2021/12/30 07:51:32;;;;;;;16.48;6.70;;;12.30;99.90;;;;;;5012519;28;20050;-63
2021/12/30 07:53:58;;;;;;;13.85;5.78;;;12.30;99.90;;;;;;5012334;28;20128;-63
2021/12/30 07:56:23;;;;;;;13.13;5.63;;;12.30;99.90;;;;;;5012504;28;20045;-62
2021/12/30 07:58:49;;;;;;;13.13;5.30;;;12.30;99.90;;;;;;5012271;28;20052;-62
2021/12/30 08:01:14;;;;;;;10.93;5.03;;;12.30;99.90;;;;;;5011989;28;20038;-63
2021/12/30 08:03:40;;;;;;;11.55;5.25;;;12.30;99.90;;;;;;5011994;28;20053;-63
2021/12/30 08:06:06;;;;;;;13.48;5.25;;;12.30;99.90;;;;;;5011246;28;20037;-64
2021/12/30 08:08:32;;;;;;;14.25;5.70;;;12.30;99.90;;;;;;5011078;28;20070;-64
2021/12/30 08:10:57;;;;;;;14.27;6.05;;;12.40;99.90;;;;;;5011053;28;20107;-64
2021/12/30 08:13:24;;;;;;;13.75;5.63;;;12.40;99.90;;;;;;5010708;28;20117;-63
2021/12/30 08:15:51;;;;;;;10.98;4.95;;;12.30;99.90;;;;;;5026791;28;20297;-65
2021/12/30 08:18:16;;;;;;;9.85;5.13;;;12.30;99.90;;;;;;5029295;28;20049;-63
2021/12/30 08:20:42;;;;;;;12.82;5.82;;;12.40;99.90;;;;;;5030153;28;20044;-64
2021/12/30 08:23:08;;;;;;;10.13;4.90;;;12.40;99.90;;;;;;5030297;28;20102;-64
2021/12/30 08:25:33;;;;;;;13.82;5.75;;;12.50;99.90;;;;;;5030707;28;20116;-63
2021/12/30 08:27:59;;;;;;;13.95;6.25;;;12.40;99.90;;;;;;5030345;28;20077;-64
2021/12/30 08:30:25;;;;;;;12.85;6.35;;;12.50;99.90;;;;;;5028870;28;20410;-64
2021/12/30 08:32:51;;;;;;;15.73;6.88;;;12.60;99.90;;;;;;5030144;28;20127;-64
2021/12/30 08:35:17;;;;;;;15.68;7.38;;;12.60;99.90;;;;;;5030480;28;20048;-64
2021/12/30 08:37:43;;;;;;;18.00;8.63;;;12.60;99.90;;;;;;5030436;28;20037;-64
2021/12/30 08:40:12;;;;;;;17.13;8.73;;;12.60;99.90;;;;;;5029597;28;20037;-64
2021/12/30 08:42:38;;;;;;;27.85;9.32;;;12.70;99.90;;;;;;5029353;28;20034;-64
2021/12/30 08:45:05;;;;;;;18.52;9.05;;;12.70;99.90;;;;;;5029063;28;20138;-64
2021/12/30 08:47:31;;;;;;;22.58;11.88;;;12.80;99.90;;;;;;5028831;28;20533;-64
2021/12/30 08:49:57;;;;;;;22.02;10.80;;;12.80;99.90;;;;;;5029128;28;20049;-65
2021/12/30 08:52:25;;;;;;;24.98;13.18;;;12.90;99.90;;;;;;5029855;28;20110;-64
2021/12/30 08:54:51;;;;;;;27.42;13.07;;;12.90;99.90;;;;;;5028745;28;20175;-64
2021/12/30 08:57:19;;;;;;;28.33;13.40;;;13.00;99.90;;;;;;5030118;28;20045;-64
2021/12/30 08:59:45;;;;;;;23.73;12.73;;;13.10;99.90;;;;;;5030086;28;20044;-63
2021/12/30 09:02:11;;;;;;;25.10;12.27;;;13.10;99.90;;;;;;5028706;28;20033;-64
2021/12/30 09:04:36;;;;;;;22.57;12.20;;;13.10;99.90;;;;;;4994419;28;1006766;-64
2021/12/30 09:07:03;;;;;;;23.92;13.13;;;13.10;99.90;;;;;;5031127;28;20276;-64
2021/12/30 09:09:29;;;;;;;22.58;12.60;;;13.10;99.90;;;;;;5029885;28;20069;-64
2021/12/30 09:11:55;;;;;;;18.40;10.25;;;13.10;99.90;;;;;;5030213;28;20076;-64
2021/12/30 09:14:21;;;;;;;18.35;11.98;;;13.10;99.90;;;;;;5030336;28;20073;-64
2021/12/30 09:16:48;;;;;;;18.73;10.57;;;13.20;99.90;;;;;;5030698;28;20469;-64
2021/12/30 09:19:15;;;;;;;17.73;10.05;;;13.20;99.90;;;;;;5030360;28;20448;-64
2021/12/30 09:21:41;;;;;;;16.55;8.57;;;13.20;99.90;;;;;;5026869;28;20073;-64
2021/12/30 09:24:09;;;;;;;15.30;8.73;;;13.10;99.90;;;;;;5029096;28;20064;-64
2021/12/30 09:26:35;;;;;;;17.05;8.73;;;13.20;99.90;;;;;;5030260;28;20033;-64
2021/12/30 09:29:01;;;;;;;18.20;9.23;;;13.20;99.90;;;;;;5030687;28;20095;-63
2021/12/30 09:31:28;;;;;;;18.05;10.07;;;13.20;99.90;;;;;;5027153;28;20069;-64
2021/12/30 09:33:57;;;;;;;17.73;9.85;;;13.20;99.90;;;;;;5018241;28;20049;-64
2021/12/30 09:36:23;;;;;;;17.33;10.50;;;13.20;99.90;;;;;;5019726;28;20045;-64
2021/12/30 09:38:51;;;;;;;16.63;9.95;;;13.20;99.90;;;;;;5026781;28;20494;-64
2021/12/30 09:41:17;;;;;;;19.70;9.40;;;13.20;99.90;;;;;;5009117;28;20091;-64
2021/12/30 09:43:42;;;;;;;21.40;11.60;;;13.10;99.90;;;;;;5010494;28;20069;-64
2021/12/30 09:46:08;;;;;;;22.73;10.82;;;13.10;99.90;;;;;;5009241;28;20084;-64
2021/12/30 09:48:34;;;;;;;21.25;11.38;;;13.20;99.90;;;;;;5010435;28;20037;-64
2021/12/30 09:50:59;;;;;;;21.05;10.50;;;13.10;99.90;;;;;;5009595;28;20073;-64
2021/12/30 09:53:26;;;;;;;22.67;11.40;;;13.10;99.90;;;;;;5009743;28;20034;-64
2021/12/30 09:55:55;;;;;;;23.55;11.77;;;13.10;99.90;;;;;;5009935;28;20413;-64
2021/12/30 09:58:21;;;;;;;23.15;11.70;;;13.10;99.90;;;;;;5010340;28;20046;-64
2021/12/30 10:00:47;;;;;;;25.33;11.77;;;13.10;99.90;;;;;;5010273;28;20046;-64
2021/12/30 10:03:12;;;;;;;20.90;10.48;;;13.10;99.90;;;;;;5008580;28;20076;-64
2021/12/30 10:05:40;;;;;;;28.17;10.95;;;13.10;99.90;;;;;;5010213;28;20085;-65
2021/12/30 10:08:19;;;;;;;23.38;10.40;;;13.10;99.90;;;;;;5009888;28;20033;-64
2021/12/30 10:10:47;;;;;;;22.50;10.38;;;13.10;99.90;;;;;;5010286;28;20048;-64
2021/12/30 10:13:14;;;;;;;20.73;10.48;;;13.10;99.90;;;;;;5009839;28;20561;-64
2021/12/30 10:15:42;;;;;;;21.35;8.90;;;13.10;99.90;;;;;;5009972;28;20042;-64
2021/12/30 10:18:08;;;;;;;22.60;9.05;;;13.10;99.90;;;;;;5010002;28;20038;-64
2021/12/30 10:20:37;;;;;;;22.10;9.50;;;13.20;99.90;;;;;;5009786;28;20045;-64
2021/12/30 10:23:16;;;;;;;21.55;9.13;;;13.20;99.90;;;;;;5009750;28;20180;-64
2021/12/30 10:25:48;;;;;;;21.90;8.95;;;13.20;99.90;;;;;;5009083;28;20042;-64
2021/12/30 10:28:35;;;;;;;21.55;9.32;;;13.20;99.90;;;;;;5010027;28;20121;-64
2021/12/30 10:31:12;;;;;;;15.35;7.80;;;13.20;99.90;;;;;;5006885;28;20053;-65
2021/12/30 10:33:51;;;;;;;19.20;8.80;;;13.30;99.90;;;;;;5007064;28;20046;-65
2021/12/30 10:36:19;;;;;;;19.67;8.00;;;13.30;99.90;;;;;;5007097;28;20037;-64
2021/12/30 10:38:45;;;;;;;22.98;7.93;;;13.20;99.90;;;;;;5007172;28;20116;-64
2021/12/30 10:41:11;;;;;;;22.65;8.10;;;13.20;99.90;;;;;;5007018;28;20137;-65
2021/12/30 10:46:10;;;;;;;22.20;9.07;;;13.20;99.90;;;;;;5007059;28;20045;-64
2021/12/30 10:49:10;;;;;;;23.00;8.02;;;13.20;99.90;;;;;;5007247;28;20049;-64
2021/12/30 10:51:40;;;;;;;27.02;9.32;;;13.20;99.90;;;;;;5007074;28;20033;-64
2021/12/30 10:54:20;;;;;;;23.92;8.10;;;13.20;99.90;;;;;;5006782;28;20525;-64
2021/12/30 10:56:53;;;;;;;21.88;8.45;;;13.20;99.90;;;;;;5005659;28;20042;-64
2021/12/30 10:59:22;;;;;;;22.83;7.80;;;13.20;99.90;;;;;;5007126;28;20038;-65
2021/12/30 11:02:02;;;;;;;22.10;7.32;;;13.10;99.90;;;;;;5007364;28;20042;-64
2021/12/30 11:04:58;;;;;;;21.48;7.78;;;13.10;99.90;;;;;;5010183;28;20042;-64
2021/12/30 11:07:27;;;;;;;23.73;7.28;;;13.10;99.90;;;;;;5007298;28;20060;-64
2021/12/30 11:09:58;;;;;;;31.67;8.25;;;13.10;99.90;;;;;;5010695;28;20568;-63
2021/12/30 11:12:29;;;;;;;38.00;8.95;;;13.20;99.90;;;;;;5010632;28;20073;-64
2021/12/30 11:14:55;;;;;;;32.67;9.50;;;13.20;99.90;;;;;;5010143;28;20050;-64
2021/12/30 11:17:29;;;;;;;29.67;7.55;;;13.20;99.90;;;;;;5010403;28;20068;-64
2021/12/30 11:20:09;;;;;;;26.02;6.90;;;13.20;99.90;;;;;;5010824;28;20037;-64
2021/12/30 11:22:38;;;;;;;26.65;7.90;;;13.20;99.90;;;;;;5012587;28;20096;-64
2021/12/30 11:25:06;;;;;;;26.67;7.88;;;13.20;99.90;;;;;;5012960;28;20038;-63
2021/12/30 11:27:33;;;;;;;26.50;7.72;;;13.20;99.90;;;;;;5012977;28;20056;-63
2021/12/30 11:30:02;;;;;;;27.17;8.25;;;13.20;99.90;;;;;;5012882;28;20038;-63
2021/12/30 11:32:30;;;;;;;31.67;8.10;;;13.20;99.90;;;;;;5012806;28;20042;-63
2021/12/30 11:34:57;;;;;;;32.05;8.15;;;13.20;99.90;;;;;;5012844;28;20038;-63
2021/12/30 11:37:23;;;;;;;27.95;8.60;;;13.20;99.90;;;;;;5012739;28;20096;-64
2021/12/30 11:39:53;;;;;;;35.17;8.80;;;13.30;99.90;;;;;;5012666;28;20053;-64
2021/12/30 11:42:26;;;;;;;27.55;8.27;;;13.20;99.90;;;;;;5011418;28;20499;-65
2021/12/30 11:44:55;;;;;;;25.40;7.60;;;13.20;99.90;;;;;;5023794;28;20048;-64
2021/12/30 11:47:33;;;;;;;31.25;9.00;;;13.20;99.90;;;;;;5032442;28;20112;-65
2021/12/30 11:50:31;;;;;;;29.98;7.82;;;13.20;99.90;;;;;;5032358;28;20112;-64
2021/12/30 11:53:03;;;;;;;29.23;9.52;;;13.10;99.90;;;;;;5032361;28;20083;-63
2021/12/30 11:55:51;;;;;;;30.02;8.57;;;13.20;99.90;;;;;;5030973;28;20045;-64
2021/12/30 11:58:31;;;;;;;34.38;10.70;;;13.10;99.90;;;;;;5032329;28;20034;-64
2021/12/30 12:01:10;;;;;;;33.58;8.90;;;13.20;99.90;;;;;;5032455;28;20368;-64
2021/12/30 12:03:47;;;;;;;27.40;8.70;;;13.10;99.90;;;;;;5027569;28;20043;-64
2021/12/30 12:06:24;;;;;;;27.77;9.25;;;13.10;99.90;;;;;;5031950;28;20048;-64
2021/12/30 12:08:56;;;;;;;30.83;9.25;;;13.10;99.90;;;;;;5022106;28;20040;-64
2021/12/30 12:11:25;;;;;;;25.35;8.73;;;13.10;99.90;;;;;;5020759;28;20037;-63
2021/12/30 12:13:54;;;;;;;35.15;9.20;;;13.10;99.90;;;;;;5018387;28;20045;-64
2021/12/30 12:16:50;;;;;;;24.85;8.70;;;13.20;99.90;;;;;;5023346;28;20037;-64
2021/12/30 12:19:18;;;;;;;33.58;8.45;;;13.20;99.90;;;;;;5020449;28;20033;-64
2021/12/30 12:21:50;;;;;;;30.05;8.95;;;13.20;99.90;;;;;;5018151;28;20045;-64
2021/12/30 12:24:22;;;;;;;27.33;8.27;;;13.20;99.90;;;;;;5016986;28;20029;-64
2021/12/30 12:26:59;;;;;;;26.80;7.53;;;13.30;99.90;;;;;;5028536;28;20041;-64
2021/12/30 12:29:26;;;;;;;29.48;8.75;;;13.30;99.90;;;;;;5019449;28;20109;-64
2021/12/30 12:32:00;;;;;;;21.02;7.95;;;13.30;99.90;;;;;;5011794;28;20053;-65
2021/12/30 12:34:46;;;;;;;28.10;8.35;;;13.30;99.90;;;;;;5018565;28;20041;-64
2021/12/30 12:37:41;;;;;;;24.10;7.70;;;13.30;99.90;;;;;;5031468;28;20045;-64
2021/12/30 12:40:06;;;;;;;19.92;8.25;;;13.20;99.90;;;;;;5007351;28;20053;-63